sensor_id;sensor_type;location;lat;lon;timestamp;temperature;humidity
36990;DHT22;22898;52.102;5.776;2023-12-22T00:01:12;9.60;99.90
36990;DHT22;22898;52.102;5.776;2023-12-22T00:03:41;9.60;99.90
36990;DHT22;22898;52.102;5.776;2023-12-22T00:06:07;9.50;99.90
36990;DHT22;22898;52.102;5.776;2023-12-22T00:08:33;9.80;99.90
36990;DHT22;22898;52.102;5.776;2023-12-22T00:10:58;9.80;99.90
36990;DHT22;22898;52.102;5.776;2023-12-22T00:13:24;9.80;99.90
36990;DHT22;22898;52.102;5.776;2023-12-22T00:15:50;9.50;99.90
36990;DHT22;22898;52.102;5.776;2023-12-22T00:18:16;9.30;99.90
36990;DHT22;22898;52.102;5.776;2023-12-22T00:20:41;9.60;99.90
36990;DHT22;22898;52.102;5.776;2023-12-22T00:23:07;9.40;99.90
36990;DHT22;22898;52.102;5.776;2023-12-22T00:25:32;9.50;99.90
36990;DHT22;22898;52.102;5.776;2023-12-22T00:27:58;9.30;99.90
36990;DHT22;22898;52.102;5.776;2023-12-22T00:30:24;9.10;99.90
36990;DHT22;22898;52.102;5.776;2023-12-22T00:32:50;8.60;99.90
36990;DHT22;22898;52.102;5.776;2023-12-22T00:35:15;8.50;99.90
36990;DHT22;22898;52.102;5.776;2023-12-22T00:37:41;8.70;99.90
36990;DHT22;22898;52.102;5.776;2023-12-22T00:40:07;8.60;99.90
36990;DHT22;22898;52.102;5.776;2023-12-22T00:42:37;8.70;99.90
36990;DHT22;22898;52.102;5.776;2023-12-22T00:45:03;8.80;99.90
36990;DHT22;22898;52.102;5.776;2023-12-22T00:47:29;8.40;99.90
36990;DHT22;22898;52.102;5.776;2023-12-22T00:49:55;8.30;99.90
36990;DHT22;22898;52.102;5.776;2023-12-22T00:52:20;8.10;99.90
36990;DHT22;22898;52.102;5.776;2023-12-22T00:54:46;8.20;99.90
36990;DHT22;22898;52.102;5.776;2023-12-22T00:57:12;8.00;99.90
36990;DHT22;22898;52.102;5.776;2023-12-22T00:59:38;8.10;99.90
36990;DHT22;22898;52.102;5.776;2023-12-22T01:02:07;8.30;99.90
36990;DHT22;22898;52.102;5.776;2023-12-22T01:04:33;8.30;99.90
36990;DHT22;22898;52.102;5.776;2023-12-22T01:06:59;8.50;99.90
36990;DHT22;22898;52.102;5.776;2023-12-22T01:09:24;8.40;99.90
36990;DHT22;22898;52.102;5.776;2023-12-22T01:11:50;8.40;99.90
36990;DHT22;22898;52.102;5.776;2023-12-22T01:14:16;8.20;99.90
36990;DHT22;22898;52.102;5.776;2023-12-22T01:16:41;8.10;99.90
36990;DHT22;22898;52.102;5.776;2023-12-22T01:19:07;8.30;99.90
36990;DHT22;22898;52.102;5.776;2023-12-22T01:21:33;8.20;99.90
36990;DHT22;22898;52.102;5.776;2023-12-22T01:23:58;8.20;99.90
36990;DHT22;22898;52.102;5.776;2023-12-22T01:26:24;8.40;99.90
36990;DHT22;22898;52.102;5.776;2023-12-22T01:28:50;8.30;99.90
36990;DHT22;22898;52.102;5.776;2023-12-22T01:31:16;8.00;99.90
36990;DHT22;22898;52.102;5.776;2023-12-22T01:33:41;8.00;99.90
36990;DHT22;22898;52.102;5.776;2023-12-22T01:36:07;8.60;99.90
36990;DHT22;22898;52.102;5.776;2023-12-22T01:38:33;8.40;99.90
36990;DHT22;22898;52.102;5.776;2023-12-22T01:40:59;8.30;99.90
36990;DHT22;22898;52.102;5.776;2023-12-22T01:43:24;8.10;99.90
36990;DHT22;22898;52.102;5.776;2023-12-22T01:45:54;8.10;99.90
36990;DHT22;22898;52.102;5.776;2023-12-22T01:48:21;8.30;99.90
36990;DHT22;22898;52.102;5.776;2023-12-22T01:50:51;8.10;99.90
36990;DHT22;22898;52.102;5.776;2023-12-22T01:53:19;8.10;99.90
36990;DHT22;22898;52.102;5.776;2023-12-22T01:55:47;8.20;99.90
36990;DHT22;22898;52.102;5.776;2023-12-22T01:58:13;8.20;99.90
36990;DHT22;22898;52.102;5.776;2023-12-22T02:00:39;8.40;99.90
36990;DHT22;22898;52.102;5.776;2023-12-22T02:03:05;8.60;99.90
36990;DHT22;22898;52.102;5.776;2023-12-22T02:05:31;8.50;99.90
36990;DHT22;22898;52.102;5.776;2023-12-22T02:07:56;8.80;99.90
36990;DHT22;22898;52.102;5.776;2023-12-22T02:10:22;8.70;99.90
36990;DHT22;22898;52.102;5.776;2023-12-22T02:12:48;8.60;99.90
36990;DHT22;22898;52.102;5.776;2023-12-22T02:15:14;8.50;99.90
36990;DHT22;22898;52.102;5.776;2023-12-22T02:17:51;8.60;99.90
36990;DHT22;22898;52.102;5.776;2023-12-22T02:20:19;8.60;99.90
36990;DHT22;22898;52.102;5.776;2023-12-22T02:22:51;8.80;99.90
36990;DHT22;22898;52.102;5.776;2023-12-22T02:25:18;9.20;99.90
36990;DHT22;22898;52.102;5.776;2023-12-22T02:27:50;9.20;99.90
36990;DHT22;22898;52.102;5.776;2023-12-22T02:30:28;9.00;99.90
36990;DHT22;22898;52.102;5.776;2023-12-22T02:32:59;9.10;99.90
36990;DHT22;22898;52.102;5.776;2023-12-22T02:35:26;9.40;99.90
36990;DHT22;22898;52.102;5.776;2023-12-22T02:37:56;9.70;99.90
36990;DHT22;22898;52.102;5.776;2023-12-22T02:40:23;9.70;99.90
36990;DHT22;22898;52.102;5.776;2023-12-22T02:42:50;9.30;99.90
36990;DHT22;22898;52.102;5.776;2023-12-22T02:45:18;9.00;99.90
36990;DHT22;22898;52.102;5.776;2023-12-22T02:47:45;9.00;99.90
36990;DHT22;22898;52.102;5.776;2023-12-22T02:50:12;9.50;99.90
36990;DHT22;22898;52.102;5.776;2023-12-22T02:52:38;9.50;99.90
36990;DHT22;22898;52.102;5.776;2023-12-22T02:55:04;9.60;99.90
36990;DHT22;22898;52.102;5.776;2023-12-22T02:57:30;9.70;99.90
36990;DHT22;22898;52.102;5.776;2023-12-22T02:59:57;10.10;99.90
36990;DHT22;22898;52.102;5.776;2023-12-22T03:02:22;10.40;99.90
36990;DHT22;22898;52.102;5.776;2023-12-22T03:04:48;10.30;99.90
36990;DHT22;22898;52.102;5.776;2023-12-22T03:07:14;9.70;99.90
36990;DHT22;22898;52.102;5.776;2023-12-22T03:09:40;7.80;99.90
36990;DHT22;22898;52.102;5.776;2023-12-22T03:12:07;6.90;99.90
36990;DHT22;22898;52.102;5.776;2023-12-22T03:14:33;6.60;99.90
36990;DHT22;22898;52.102;5.776;2023-12-22T03:17:03;6.30;99.90
36990;DHT22;22898;52.102;5.776;2023-12-22T03:19:29;6.30;99.90
36990;DHT22;22898;52.102;5.776;2023-12-22T03:21:55;6.60;99.90
36990;DHT22;22898;52.102;5.776;2023-12-22T03:24:22;6.40;99.90
36990;DHT22;22898;52.102;5.776;2023-12-22T03:26:49;6.20;99.90
36990;DHT22;22898;52.102;5.776;2023-12-22T03:29:15;6.50;99.90
36990;DHT22;22898;52.102;5.776;2023-12-22T03:31:41;6.50;99.90
36990;DHT22;22898;52.102;5.776;2023-12-22T03:34:07;6.60;99.90
36990;DHT22;22898;52.102;5.776;2023-12-22T03:36:33;6.60;99.90
36990;DHT22;22898;52.102;5.776;2023-12-22T03:38:59;6.50;99.90
36990;DHT22;22898;52.102;5.776;2023-12-22T03:41:24;6.50;99.90
36990;DHT22;22898;52.102;5.776;2023-12-22T03:43:50;6.80;99.90
36990;DHT22;22898;52.102;5.776;2023-12-22T03:46:15;7.20;99.90
36990;DHT22;22898;52.102;5.776;2023-12-22T03:48:41;6.60;99.90
36990;DHT22;22898;52.102;5.776;2023-12-22T03:51:07;6.10;99.90
36990;DHT22;22898;52.102;5.776;2023-12-22T03:53:33;6.30;99.90
36990;DHT22;22898;52.102;5.776;2023-12-22T03:55:58;6.50;99.90
36990;DHT22;22898;52.102;5.776;2023-12-22T03:58:24;6.90;99.90
36990;DHT22;22898;52.102;5.776;2023-12-22T04:00:51;7.20;99.90
36990;DHT22;22898;52.102;5.776;2023-12-22T04:03:17;7.00;99.90
36990;DHT22;22898;52.102;5.776;2023-12-22T04:05:42;6.90;99.90
36990;DHT22;22898;52.102;5.776;2023-12-22T04:08:08;7.00;99.90
36990;DHT22;22898;52.102;5.776;2023-12-22T04:10:34;7.50;99.90
36990;DHT22;22898;52.102;5.776;2023-12-22T04:13:00;7.40;99.90
36990;DHT22;22898;52.102;5.776;2023-12-22T04:15:26;7.50;99.90
36990;DHT22;22898;52.102;5.776;2023-12-22T04:17:51;7.40;99.90
36990;DHT22;22898;52.102;5.776;2023-12-22T04:20:17;7.50;99.90
36990;DHT22;22898;52.102;5.776;2023-12-22T04:22:42;7.50;99.90
36990;DHT22;22898;52.102;5.776;2023-12-22T04:25:08;7.40;99.90
36990;DHT22;22898;52.102;5.776;2023-12-22T04:27:34;7.40;99.90
36990;DHT22;22898;52.102;5.776;2023-12-22T04:30:00;7.40;99.90
36990;DHT22;22898;52.102;5.776;2023-12-22T04:32:26;7.60;99.90
36990;DHT22;22898;52.102;5.776;2023-12-22T04:34:52;7.90;99.90
36990;DHT22;22898;52.102;5.776;2023-12-22T04:37:17;7.90;99.90
36990;DHT22;22898;52.102;5.776;2023-12-22T04:39:43;8.10;99.90
36990;DHT22;22898;52.102;5.776;2023-12-22T04:42:09;8.20;99.90
36990;DHT22;22898;52.102;5.776;2023-12-22T04:44:35;8.20;99.90
36990;DHT22;22898;52.102;5.776;2023-12-22T04:47:01;8.30;99.90
36990;DHT22;22898;52.102;5.776;2023-12-22T04:49:26;8.40;99.90
36990;DHT22;22898;52.102;5.776;2023-12-22T04:51:52;8.50;99.90
36990;DHT22;22898;52.102;5.776;2023-12-22T04:54:17;8.70;99.90
36990;DHT22;22898;52.102;5.776;2023-12-22T04:56:43;8.30;99.90
36990;DHT22;22898;52.102;5.776;2023-12-22T04:59:09;8.00;99.90
36990;DHT22;22898;52.102;5.776;2023-12-22T05:01:35;8.10;99.90
36990;DHT22;22898;52.102;5.776;2023-12-22T05:04:01;8.30;99.90
36990;DHT22;22898;52.102;5.776;2023-12-22T05:06:27;8.40;99.90
36990;DHT22;22898;52.102;5.776;2023-12-22T05:08:55;8.60;99.90
36990;DHT22;22898;52.102;5.776;2023-12-22T05:11:24;8.90;99.90
36990;DHT22;22898;52.102;5.776;2023-12-22T05:13:49;8.90;99.90
36990;DHT22;22898;52.102;5.776;2023-12-22T05:16:15;9.00;99.90
36990;DHT22;22898;52.102;5.776;2023-12-22T05:18:41;8.90;99.90
36990;DHT22;22898;52.102;5.776;2023-12-22T05:21:06;9.00;99.90
36990;DHT22;22898;52.102;5.776;2023-12-22T05:23:32;9.70;99.90
36990;DHT22;22898;52.102;5.776;2023-12-22T05:25:58;9.90;99.90
36990;DHT22;22898;52.102;5.776;2023-12-22T05:28:23;9.80;99.90
36990;DHT22;22898;52.102;5.776;2023-12-22T05:30:49;9.80;99.90
36990;DHT22;22898;52.102;5.776;2023-12-22T05:33:15;10.20;99.90
36990;DHT22;22898;52.102;5.776;2023-12-22T05:35:41;10.50;99.90
36990;DHT22;22898;52.102;5.776;2023-12-22T05:38:06;10.70;99.90
36990;DHT22;22898;52.102;5.776;2023-12-22T05:40:32;10.80;99.90
36990;DHT22;22898;52.102;5.776;2023-12-22T05:42:57;10.30;99.90
36990;DHT22;22898;52.102;5.776;2023-12-22T05:45:24;9.80;99.90
36990;DHT22;22898;52.102;5.776;2023-12-22T05:47:50;9.60;99.90
36990;DHT22;22898;52.102;5.776;2023-12-22T05:50:16;10.20;99.90
36990;DHT22;22898;52.102;5.776;2023-12-22T05:52:42;10.30;99.90
36990;DHT22;22898;52.102;5.776;2023-12-22T05:55:11;10.70;99.90
36990;DHT22;22898;52.102;5.776;2023-12-22T05:57:37;10.90;99.90
36990;DHT22;22898;52.102;5.776;2023-12-22T06:00:04;10.90;99.90
36990;DHT22;22898;52.102;5.776;2023-12-22T06:02:33;11.20;99.90
36990;DHT22;22898;52.102;5.776;2023-12-22T06:04:58;10.90;99.90
36990;DHT22;22898;52.102;5.776;2023-12-22T06:07:25;10.60;99.90
36990;DHT22;22898;52.102;5.776;2023-12-22T06:09:51;10.50;99.90
36990;DHT22;22898;52.102;5.776;2023-12-22T06:12:17;10.60;99.90
36990;DHT22;22898;52.102;5.776;2023-12-22T06:14:42;10.90;99.90
36990;DHT22;22898;52.102;5.776;2023-12-22T06:17:08;10.50;99.90
36990;DHT22;22898;52.102;5.776;2023-12-22T06:19:35;10.10;99.90
36990;DHT22;22898;52.102;5.776;2023-12-22T06:22:01;10.20;99.90
36990;DHT22;22898;52.102;5.776;2023-12-22T06:24:27;10.00;99.90
36990;DHT22;22898;52.102;5.776;2023-12-22T06:26:53;9.70;99.90
36990;DHT22;22898;52.102;5.776;2023-12-22T06:29:19;9.60;99.90
36990;DHT22;22898;52.102;5.776;2023-12-22T06:31:44;9.50;99.90
36990;DHT22;22898;52.102;5.776;2023-12-22T06:34:10;9.40;99.90
36990;DHT22;22898;52.102;5.776;2023-12-22T06:36:36;9.40;99.90
36990;DHT22;22898;52.102;5.776;2023-12-22T06:39:01;9.40;99.90
36990;DHT22;22898;52.102;5.776;2023-12-22T06:41:28;9.70;99.90
36990;DHT22;22898;52.102;5.776;2023-12-22T06:43:55;9.70;99.90
36990;DHT22;22898;52.102;5.776;2023-12-22T06:46:23;9.60;99.90
36990;DHT22;22898;52.102;5.776;2023-12-22T06:48:51;9.60;99.90
36990;DHT22;22898;52.102;5.776;2023-12-22T06:51:27;10.00;99.90
36990;DHT22;22898;52.102;5.776;2023-12-22T06:53:54;9.80;99.90
36990;DHT22;22898;52.102;5.776;2023-12-22T06:58:48;10.00;99.90
36990;DHT22;22898;52.102;5.776;2023-12-22T07:01:27;10.20;99.90
36990;DHT22;22898;52.102;5.776;2023-12-22T07:03:53;10.50;99.90
36990;DHT22;22898;52.102;5.776;2023-12-22T07:06:20;10.10;99.90
36990;DHT22;22898;52.102;5.776;2023-12-22T07:08:46;10.20;99.90
36990;DHT22;22898;52.102;5.776;2023-12-22T07:11:20;10.00;99.90
36990;DHT22;22898;52.102;5.776;2023-12-22T07:13:45;10.00;99.90
36990;DHT22;22898;52.102;5.776;2023-12-22T07:16:11;10.30;99.90
36990;DHT22;22898;52.102;5.776;2023-12-22T07:18:38;10.10;99.90
36990;DHT22;22898;52.102;5.776;2023-12-22T07:21:03;10.10;99.90
36990;DHT22;22898;52.102;5.776;2023-12-22T07:23:29;10.30;99.90
36990;DHT22;22898;52.102;5.776;2023-12-22T07:25:55;10.40;99.90
36990;DHT22;22898;52.102;5.776;2023-12-22T07:28:20;10.50;99.90
36990;DHT22;22898;52.102;5.776;2023-12-22T07:30:46;10.90;99.90
36990;DHT22;22898;52.102;5.776;2023-12-22T07:33:12;10.50;99.90
36990;DHT22;22898;52.102;5.776;2023-12-22T07:35:37;10.30;99.90
36990;DHT22;22898;52.102;5.776;2023-12-22T07:38:03;10.10;99.90
36990;DHT22;22898;52.102;5.776;2023-12-22T07:40:29;10.40;99.90
36990;DHT22;22898;52.102;5.776;2023-12-22T07:42:57;10.50;99.90
36990;DHT22;22898;52.102;5.776;2023-12-22T07:45:23;10.40;99.90
36990;DHT22;22898;52.102;5.776;2023-12-22T07:47:48;10.40;99.90
36990;DHT22;22898;52.102;5.776;2023-12-22T07:50:14;10.30;99.90
36990;DHT22;22898;52.102;5.776;2023-12-22T07:52:40;10.30;99.90
36990;DHT22;22898;52.102;5.776;2023-12-22T07:55:07;10.40;99.90
36990;DHT22;22898;52.102;5.776;2023-12-22T07:57:37;10.20;99.90
36990;DHT22;22898;52.102;5.776;2023-12-22T08:00:04;10.60;99.90
36990;DHT22;22898;52.102;5.776;2023-12-22T08:02:31;10.40;99.90
36990;DHT22;22898;52.102;5.776;2023-12-22T08:04:57;10.50;99.90
36990;DHT22;22898;52.102;5.776;2023-12-22T08:07:22;10.80;99.90
36990;DHT22;22898;52.102;5.776;2023-12-22T08:09:48;10.90;99.90
36990;DHT22;22898;52.102;5.776;2023-12-22T08:12:14;10.80;99.90
36990;DHT22;22898;52.102;5.776;2023-12-22T08:14:39;10.40;99.90
36990;DHT22;22898;52.102;5.776;2023-12-22T08:17:06;9.70;99.90
36990;DHT22;22898;52.102;5.776;2023-12-22T08:19:32;9.80;99.90
36990;DHT22;22898;52.102;5.776;2023-12-22T08:21:57;9.90;99.90
36990;DHT22;22898;52.102;5.776;2023-12-22T08:24:23;9.70;99.90
36990;DHT22;22898;52.102;5.776;2023-12-22T08:26:50;9.50;99.90
36990;DHT22;22898;52.102;5.776;2023-12-22T08:29:15;9.70;99.90
36990;DHT22;22898;52.102;5.776;2023-12-22T08:31:41;9.40;99.90
36990;DHT22;22898;52.102;5.776;2023-12-22T08:34:07;9.60;99.90
36990;DHT22;22898;52.102;5.776;2023-12-22T08:36:32;9.60;99.90
36990;DHT22;22898;52.102;5.776;2023-12-22T08:38:58;9.90;99.90
36990;DHT22;22898;52.102;5.776;2023-12-22T08:41:24;10.30;99.90
36990;DHT22;22898;52.102;5.776;2023-12-22T08:43:50;10.50;99.90
36990;DHT22;22898;52.102;5.776;2023-12-22T08:46:16;10.60;99.90
36990;DHT22;22898;52.102;5.776;2023-12-22T08:48:41;10.60;99.90
36990;DHT22;22898;52.102;5.776;2023-12-22T08:51:07;10.60;99.90
36990;DHT22;22898;52.102;5.776;2023-12-22T08:53:34;10.60;99.90
36990;DHT22;22898;52.102;5.776;2023-12-22T08:56:03;10.60;99.90
36990;DHT22;22898;52.102;5.776;2023-12-22T08:58:32;10.90;99.90
36990;DHT22;22898;52.102;5.776;2023-12-22T09:00:57;10.60;99.90
36990;DHT22;22898;52.102;5.776;2023-12-22T09:03:23;10.30;99.90
36990;DHT22;22898;52.102;5.776;2023-12-22T09:05:49;10.20;99.90
36990;DHT22;22898;52.102;5.776;2023-12-22T09:08:15;10.10;99.90
36990;DHT22;22898;52.102;5.776;2023-12-22T09:10:40;10.20;99.90
36990;DHT22;22898;52.102;5.776;2023-12-22T09:13:06;10.20;99.90
36990;DHT22;22898;52.102;5.776;2023-12-22T09:15:31;10.40;99.90
36990;DHT22;22898;52.102;5.776;2023-12-22T09:17:57;10.40;99.90
36990;DHT22;22898;52.102;5.776;2023-12-22T09:20:23;10.50;99.90
36990;DHT22;22898;52.102;5.776;2023-12-22T09:22:48;10.30;99.90
36990;DHT22;22898;52.102;5.776;2023-12-22T09:25:14;10.20;99.90
36990;DHT22;22898;52.102;5.776;2023-12-22T09:27:40;10.30;99.90
36990;DHT22;22898;52.102;5.776;2023-12-22T09:30:06;10.30;99.90
36990;DHT22;22898;52.102;5.776;2023-12-22T09:32:32;10.40;99.90
36990;DHT22;22898;52.102;5.776;2023-12-22T09:34:58;10.60;99.90
36990;DHT22;22898;52.102;5.776;2023-12-22T09:37:25;10.50;99.90
36990;DHT22;22898;52.102;5.776;2023-12-22T09:39:52;10.50;99.90
36990;DHT22;22898;52.102;5.776;2023-12-22T09:42:19;10.40;99.90
36990;DHT22;22898;52.102;5.776;2023-12-22T09:44:46;10.90;99.90
36990;DHT22;22898;52.102;5.776;2023-12-22T09:47:16;10.90;99.90
36990;DHT22;22898;52.102;5.776;2023-12-22T09:49:43;10.50;99.90
36990;DHT22;22898;52.102;5.776;2023-12-22T09:52:10;10.30;99.90
36990;DHT22;22898;52.102;5.776;2023-12-22T09:54:37;10.40;99.90
36990;DHT22;22898;52.102;5.776;2023-12-22T09:57:03;10.60;99.90
36990;DHT22;22898;52.102;5.776;2023-12-22T09:59:30;10.40;99.90
36990;DHT22;22898;52.102;5.776;2023-12-22T10:01:57;10.10;99.90
36990;DHT22;22898;52.102;5.776;2023-12-22T10:04:25;9.80;99.90
36990;DHT22;22898;52.102;5.776;2023-12-22T10:06:51;9.90;99.90
36990;DHT22;22898;52.102;5.776;2023-12-22T10:09:19;9.90;99.90
36990;DHT22;22898;52.102;5.776;2023-12-22T10:11:47;10.10;99.90
36990;DHT22;22898;52.102;5.776;2023-12-22T10:14:15;10.40;99.90
36990;DHT22;22898;52.102;5.776;2023-12-22T10:16:53;10.60;99.90
36990;DHT22;22898;52.102;5.776;2023-12-22T10:19:19;10.60;99.90
36990;DHT22;22898;52.102;5.776;2023-12-22T10:21:51;10.50;99.90
36990;DHT22;22898;52.102;5.776;2023-12-22T10:24:36;10.50;99.90
36990;DHT22;22898;52.102;5.776;2023-12-22T10:27:02;10.80;99.90
36990;DHT22;22898;52.102;5.776;2023-12-22T10:29:29;10.70;99.90
36990;DHT22;22898;52.102;5.776;2023-12-22T10:31:55;10.60;99.90
36990;DHT22;22898;52.102;5.776;2023-12-22T10:34:20;10.50;99.90
36990;DHT22;22898;52.102;5.776;2023-12-22T10:36:46;10.50;99.90
36990;DHT22;22898;52.102;5.776;2023-12-22T10:39:11;10.60;99.90
36990;DHT22;22898;52.102;5.776;2023-12-22T10:41:37;10.40;99.90
36990;DHT22;22898;52.102;5.776;2023-12-22T10:44:03;10.60;99.90
36990;DHT22;22898;52.102;5.776;2023-12-22T10:46:30;10.70;99.90
36990;DHT22;22898;52.102;5.776;2023-12-22T10:48:57;10.90;99.90
36990;DHT22;22898;52.102;5.776;2023-12-22T10:51:23;11.20;99.90
36990;DHT22;22898;52.102;5.776;2023-12-22T10:53:48;11.20;99.90
36990;DHT22;22898;52.102;5.776;2023-12-22T10:56:14;11.10;99.90
36990;DHT22;22898;52.102;5.776;2023-12-22T10:58:40;10.90;99.90
36990;DHT22;22898;52.102;5.776;2023-12-22T11:01:07;10.80;99.90
36990;DHT22;22898;52.102;5.776;2023-12-22T11:03:38;10.60;99.90
36990;DHT22;22898;52.102;5.776;2023-12-22T11:06:06;10.90;99.90
36990;DHT22;22898;52.102;5.776;2023-12-22T11:08:38;10.80;99.90
36990;DHT22;22898;52.102;5.776;2023-12-22T11:11:16;10.90;99.90
36990;DHT22;22898;52.102;5.776;2023-12-22T11:13:46;10.90;99.90
36990;DHT22;22898;52.102;5.776;2023-12-22T11:16:13;10.40;99.90
36990;DHT22;22898;52.102;5.776;2023-12-22T11:18:40;10.90;99.90
36990;DHT22;22898;52.102;5.776;2023-12-22T11:21:08;11.10;99.90
36990;DHT22;22898;52.102;5.776;2023-12-22T11:23:36;11.30;99.90
36990;DHT22;22898;52.102;5.776;2023-12-22T11:26:03;11.10;99.90
36990;DHT22;22898;52.102;5.776;2023-12-22T11:28:31;10.90;99.90
36990;DHT22;22898;52.102;5.776;2023-12-22T11:30:58;11.00;99.90
36990;DHT22;22898;52.102;5.776;2023-12-22T11:33:25;11.10;99.90
36990;DHT22;22898;52.102;5.776;2023-12-22T11:35:55;10.90;99.90
36990;DHT22;22898;52.102;5.776;2023-12-22T11:38:21;10.70;99.90
36990;DHT22;22898;52.102;5.776;2023-12-22T11:40:49;10.80;99.90
36990;DHT22;22898;52.102;5.776;2023-12-22T11:43:15;10.70;99.90
36990;DHT22;22898;52.102;5.776;2023-12-22T11:45:42;10.60;99.90
36990;DHT22;22898;52.102;5.776;2023-12-22T11:48:09;10.80;99.90
36990;DHT22;22898;52.102;5.776;2023-12-22T11:50:35;11.20;99.90
36990;DHT22;22898;52.102;5.776;2023-12-22T11:53:18;11.40;99.90
36990;DHT22;22898;52.102;5.776;2023-12-22T12:01:03;11.30;99.90
36990;DHT22;22898;52.102;5.776;2023-12-22T12:03:30;10.70;99.90
36990;DHT22;22898;52.102;5.776;2023-12-22T12:08:52;11.20;99.90
36990;DHT22;22898;52.102;5.776;2023-12-22T12:11:19;11.50;99.90
36990;DHT22;22898;52.102;5.776;2023-12-22T12:13:46;11.50;99.90
36990;DHT22;22898;52.102;5.776;2023-12-22T12:16:21;11.10;99.90
36990;DHT22;22898;52.102;5.776;2023-12-22T12:18:47;10.80;99.90
36990;DHT22;22898;52.102;5.776;2023-12-22T12:21:13;10.40;99.90
36990;DHT22;22898;52.102;5.776;2023-12-22T12:23:41;10.40;99.90
36990;DHT22;22898;52.102;5.776;2023-12-22T12:26:07;10.40;99.90
36990;DHT22;22898;52.102;5.776;2023-12-22T12:28:37;10.50;99.90
36990;DHT22;22898;52.102;5.776;2023-12-22T12:31:05;10.50;99.90
36990;DHT22;22898;52.102;5.776;2023-12-22T12:33:31;10.30;99.90
36990;DHT22;22898;52.102;5.776;2023-12-22T12:35:59;10.50;99.90
36990;DHT22;22898;52.102;5.776;2023-12-22T12:38:42;10.60;99.90
36990;DHT22;22898;52.102;5.776;2023-12-22T12:41:10;10.70;99.90
36990;DHT22;22898;52.102;5.776;2023-12-22T12:43:41;11.00;99.90
36990;DHT22;22898;52.102;5.776;2023-12-22T12:46:07;11.10;99.90
36990;DHT22;22898;52.102;5.776;2023-12-22T12:48:33;11.10;99.90
36990;DHT22;22898;52.102;5.776;2023-12-22T12:51:06;10.90;99.90
36990;DHT22;22898;52.102;5.776;2023-12-22T12:53:32;11.10;99.90
36990;DHT22;22898;52.102;5.776;2023-12-22T12:55:59;11.10;99.90
36990;DHT22;22898;52.102;5.776;2023-12-22T12:58:42;10.80;99.90
36990;DHT22;22898;52.102;5.776;2023-12-22T13:01:09;10.90;99.90
36990;DHT22;22898;52.102;5.776;2023-12-22T13:03:53;10.80;99.90
36990;DHT22;22898;52.102;5.776;2023-12-22T13:06:19;10.90;99.90
36990;DHT22;22898;52.102;5.776;2023-12-22T13:08:49;10.80;99.90
36990;DHT22;22898;52.102;5.776;2023-12-22T13:11:24;10.90;99.90
36990;DHT22;22898;52.102;5.776;2023-12-22T13:13:51;11.30;99.90
36990;DHT22;22898;52.102;5.776;2023-12-22T13:16:24;11.10;99.90
36990;DHT22;22898;52.102;5.776;2023-12-22T13:18:56;11.10;99.90
36990;DHT22;22898;52.102;5.776;2023-12-22T13:21:23;11.10;99.90
36990;DHT22;22898;52.102;5.776;2023-12-22T13:24:12;11.00;99.90
36990;DHT22;22898;52.102;5.776;2023-12-22T13:26:39;10.70;99.90
36990;DHT22;22898;52.102;5.776;2023-12-22T13:29:08;10.80;99.90
36990;DHT22;22898;52.102;5.776;2023-12-22T13:31:37;10.90;99.90
36990;DHT22;22898;52.102;5.776;2023-12-22T13:34:07;11.20;99.90
36990;DHT22;22898;52.102;5.776;2023-12-22T13:36:34;11.10;99.90
36990;DHT22;22898;52.102;5.776;2023-12-22T13:39:02;11.20;99.90
36990;DHT22;22898;52.102;5.776;2023-12-22T13:41:41;11.20;99.90
36990;DHT22;22898;52.102;5.776;2023-12-22T13:44:11;11.00;99.90
36990;DHT22;22898;52.102;5.776;2023-12-22T13:46:37;11.10;99.90
36990;DHT22;22898;52.102;5.776;2023-12-22T13:49:07;11.00;99.90
36990;DHT22;22898;52.102;5.776;2023-12-22T13:51:43;11.00;99.90
36990;DHT22;22898;52.102;5.776;2023-12-22T13:54:10;11.00;99.90
36990;DHT22;22898;52.102;5.776;2023-12-22T13:56:36;11.30;99.90
36990;DHT22;22898;52.102;5.776;2023-12-22T13:59:03;11.20;99.90
36990;DHT22;22898;52.102;5.776;2023-12-22T14:01:29;10.90;99.90
36990;DHT22;22898;52.102;5.776;2023-12-22T14:03:56;10.90;99.90
36990;DHT22;22898;52.102;5.776;2023-12-22T14:06:26;10.90;99.90
36990;DHT22;22898;52.102;5.776;2023-12-22T14:08:53;11.20;99.90
36990;DHT22;22898;52.102;5.776;2023-12-22T14:11:19;11.10;99.90
36990;DHT22;22898;52.102;5.776;2023-12-22T14:13:45;10.70;99.90
36990;DHT22;22898;52.102;5.776;2023-12-22T14:16:11;10.80;99.90
36990;DHT22;22898;52.102;5.776;2023-12-22T14:18:36;11.10;99.90
36990;DHT22;22898;52.102;5.776;2023-12-22T14:21:02;10.90;99.90
36990;DHT22;22898;52.102;5.776;2023-12-22T14:23:30;10.80;99.90
36990;DHT22;22898;52.102;5.776;2023-12-22T14:25:56;10.90;99.90
36990;DHT22;22898;52.102;5.776;2023-12-22T14:28:22;10.90;99.90
36990;DHT22;22898;52.102;5.776;2023-12-22T14:30:48;10.90;99.90
36990;DHT22;22898;52.102;5.776;2023-12-22T14:33:14;10.60;99.90
36990;DHT22;22898;52.102;5.776;2023-12-22T14:35:40;10.60;99.90
36990;DHT22;22898;52.102;5.776;2023-12-22T14:38:06;10.40;99.90
36990;DHT22;22898;52.102;5.776;2023-12-22T14:40:32;10.50;99.90
36990;DHT22;22898;52.102;5.776;2023-12-22T14:42:58;10.60;99.90
36990;DHT22;22898;52.102;5.776;2023-12-22T14:45:24;10.80;99.90
36990;DHT22;22898;52.102;5.776;2023-12-22T14:47:50;10.70;99.90
36990;DHT22;22898;52.102;5.776;2023-12-22T14:50:17;10.60;99.90
36990;DHT22;22898;52.102;5.776;2023-12-22T14:52:43;10.90;99.90
36990;DHT22;22898;52.102;5.776;2023-12-22T14:55:10;10.80;99.90
36990;DHT22;22898;52.102;5.776;2023-12-22T14:57:35;10.70;99.90
36990;DHT22;22898;52.102;5.776;2023-12-22T15:00:02;10.80;99.90
36990;DHT22;22898;52.102;5.776;2023-12-22T15:02:28;11.00;99.90
36990;DHT22;22898;52.102;5.776;2023-12-22T15:04:53;11.10;99.90
36990;DHT22;22898;52.102;5.776;2023-12-22T15:07:19;11.00;99.90
36990;DHT22;22898;52.102;5.776;2023-12-22T15:09:45;10.70;99.90
36990;DHT22;22898;52.102;5.776;2023-12-22T15:12:14;10.90;99.90
36990;DHT22;22898;52.102;5.776;2023-12-22T15:14:47;10.90;99.90
36990;DHT22;22898;52.102;5.776;2023-12-22T15:17:13;10.70;99.90
36990;DHT22;22898;52.102;5.776;2023-12-22T15:19:42;10.80;99.90
36990;DHT22;22898;52.102;5.776;2023-12-22T15:22:09;11.00;99.90
36990;DHT22;22898;52.102;5.776;2023-12-22T15:24:37;11.00;99.90
36990;DHT22;22898;52.102;5.776;2023-12-22T15:27:06;11.00;99.90
36990;DHT22;22898;52.102;5.776;2023-12-22T15:29:32;11.10;99.90
36990;DHT22;22898;52.102;5.776;2023-12-22T15:31:58;11.20;99.90
36990;DHT22;22898;52.102;5.776;2023-12-22T15:34:25;11.20;99.90
36990;DHT22;22898;52.102;5.776;2023-12-22T15:36:51;11.30;99.90
36990;DHT22;22898;52.102;5.776;2023-12-22T15:39:17;11.00;99.90
36990;DHT22;22898;52.102;5.776;2023-12-22T15:41:42;11.10;99.90
36990;DHT22;22898;52.102;5.776;2023-12-22T15:44:08;11.10;99.90
36990;DHT22;22898;52.102;5.776;2023-12-22T15:46:34;11.10;99.90